createdAt,value
2022-08-24T12:46:59.180Z,93348.75
2022-08-24T12:52:08.679Z,93366.94
2022-08-24T12:58:03.701Z,93362.28
2022-08-24T13:03:24.041Z,93365.00
2022-08-24T13:08:49.892Z,93360.34
2022-08-24T13:13:55.078Z,93358.47
2022-08-24T13:19:17.266Z,93360.59
2022-08-24T13:24:30.252Z,93347.31
2022-08-24T13:29:35.046Z,93339.50
2022-08-24T13:34:44.510Z,93333.59
2022-08-24T13:39:54.705Z,93317.72
2022-08-24T13:45:19.047Z,93332.06
2022-08-24T13:50:28.849Z,93333.47
2022-08-24T13:55:47.766Z,93336.19
2022-08-24T14:01:15.671Z,93334.22
2022-08-24T14:06:47.147Z,93328.25
2022-08-24T14:12:26.483Z,93341.81
2022-08-24T14:17:58.129Z,93333.78
2022-08-24T14:23:33.418Z,93321.03
2022-08-24T14:28:42.765Z,93336.28
2022-08-24T14:33:56.241Z,93342.97
2022-08-24T14:39:10.966Z,93347.41
2022-08-24T14:44:25.858Z,93357.56
2022-08-24T14:50:20.398Z,93378.44
2022-08-24T14:56:16.143Z,93388.22
2022-08-24T15:01:25.201Z,93378.97
2022-08-24T15:06:47.267Z,93374.69
2022-08-24T15:11:51.488Z,93374.53
2022-08-24T15:17:10.563Z,93386.69
2022-08-24T15:22:36.183Z,93390.16
2022-08-24T15:27:56.042Z,93406.13
2022-08-24T15:33:31.437Z,93386.78
2022-08-24T15:38:37.371Z,93367.38
2022-08-24T15:43:59.050Z,93381.22
2022-08-24T15:49:07.798Z,93384.16
2022-08-24T15:54:31.534Z,93383.50
2022-08-24T15:59:40.800Z,93384.28
2022-08-24T16:04:49.286Z,93392.34
2022-08-24T16:10:13.442Z,93399.25
2022-08-24T16:15:19.768Z,93390.84
2022-08-24T16:20:25.650Z,93389.38
2022-08-24T16:25:49.223Z,93386.38
2022-08-24T16:31:03.041Z,93371.06
2022-08-24T16:36:12.702Z,93366.34
2022-08-24T16:41:19.923Z,93369.91
2022-08-24T16:46:24.622Z,93362.50
2022-08-24T16:51:28.923Z,93375.91
2022-08-24T16:56:32.559Z,93366.66
2022-08-24T17:09:56.597Z,93372.97
2022-08-24T17:15:00.485Z,93391.88
2022-08-24T17:20:10.147Z,93397.13
2022-08-24T17:25:14.007Z,93418.94
2022-08-24T17:30:17.656Z,93434.44
2022-08-24T17:35:21.785Z,93425.19
2022-08-24T17:40:27.680Z,93437.94
2022-08-24T17:45:30.812Z,93443.03
2022-08-24T17:50:36.121Z,93459.00
2022-08-24T17:55:39.684Z,93463.31
2022-08-24T18:00:43.560Z,93460.66
2022-08-24T18:05:47.532Z,93461.84
2022-08-24T18:10:51.585Z,93466.47
2022-08-24T18:15:55.731Z,93475.88
2022-08-24T18:20:59.037Z,93466.78
2022-08-24T18:26:03.494Z,93467.13
2022-08-24T18:31:07.132Z,93476.25
2022-08-24T18:36:10.678Z,93484.59
2022-08-24T18:41:15.070Z,93493.47
2022-08-24T18:46:18.672Z,93491.47
2022-08-24T18:51:22.291Z,93475.72
2022-08-24T18:56:30.881Z,93474.25
2022-08-24T19:01:58.255Z,93493.53
2022-08-24T19:07:01.528Z,93496.41
2022-08-24T19:12:06.499Z,93492.66
2022-08-24T19:17:09.704Z,93493.81
2022-08-24T19:22:13.055Z,93495.81
2022-08-24T19:27:16.602Z,93497.56
2022-08-24T19:32:27.323Z,93502.81
2022-08-24T19:37:31.953Z,93502.41
2022-08-24T19:42:36.901Z,93508.81
2022-08-24T19:47:41.290Z,93506.97
2022-08-24T19:52:46.642Z,93510.97
2022-08-24T19:57:55.210Z,93503.53
2022-08-24T20:03:00.563Z,93503.69
2022-08-24T20:08:04.286Z,93501.63
2022-08-24T20:13:08.034Z,93492.53
2022-08-24T20:18:12.079Z,93514.09
2022-08-24T20:23:15.770Z,93522.84
2022-08-24T20:28:38.178Z,93514.09
2022-08-24T20:33:42.570Z,93510.44
2022-08-24T20:38:46.536Z,93512.22
2022-08-24T20:43:52.667Z,93512.28
2022-08-24T20:48:57.719Z,93503.78
2022-08-24T20:54:02.069Z,93518.16
2022-08-24T20:59:11.962Z,93513.25
2022-08-24T21:04:16.409Z,93518.00
2022-08-24T21:09:19.922Z,93516.06
2022-08-24T21:14:23.913Z,93504.41
2022-08-24T21:19:28.413Z,93492.50
2022-08-24T21:24:31.429Z,93503.59
2022-08-24T21:29:35.099Z,93495.41
2022-08-24T21:34:41.959Z,93500.63
2022-08-24T21:39:46.890Z,93502.69
2022-08-24T21:44:50.074Z,93504.38
2022-08-24T21:49:53.887Z,93500.13
2022-08-24T21:54:56.956Z,93520.16
2022-08-24T22:00:00.967Z,93524.53
2022-08-24T22:05:06.129Z,93516.34
2022-08-24T22:10:10.059Z,93524.94
2022-08-24T22:15:16.257Z,93511.56
2022-08-24T22:20:23.293Z,93515.44
2022-08-24T22:25:27.410Z,93503.00
2022-08-24T22:30:34.002Z,93496.69
2022-08-24T22:35:45.219Z,93477.22
2022-08-24T22:40:56.120Z,93494.72
2022-08-24T22:45:59.200Z,93470.72
2022-08-24T22:51:03.653Z,93479.47
2022-08-24T22:56:16.384Z,93482.22
2022-08-24T23:01:27.845Z,93483.19
2022-08-24T23:06:31.896Z,93478.59
2022-08-24T23:11:36.384Z,93480.28
2022-08-24T23:16:45.365Z,93484.03
2022-08-24T23:21:49.064Z,93464.31
2022-08-24T23:26:52.098Z,93459.34
2022-08-24T23:31:55.426Z,93452.03
2022-08-24T23:36:58.881Z,93454.16
2022-08-24T23:42:02.129Z,93449.09
2022-08-24T23:47:06.293Z,93443.59
2022-08-24T23:52:25.892Z,93455.41
2022-08-24T23:57:32.384Z,93447.97
